• Join FlightAware (Why Join?)
  • Login
  • US Flag 
04:51PM EDT


 

Airport Tracker/Info


-or-


 

Live Flight TrackerFlight Track Log ✈ UAL3779 ✈ 10-Apr-2013 ✈ KOKC - KIND

Flight Track Log - Related Links

Times and Time Zones

All times are in EDT time to prevent confusion due to time zone crossing. See the UAL3779 flight status page for this flight to view local times or setup timezone preferences in your user account.

Time Position Orientation Groundspeed Altitude Reporting Facility
EDT Latitude Longitude Course Direction KTS MPH feet Rate Location/Type
07:45AM 35.3997 -97.6097 24° Northeast 141 162 2,000  Level Fort Worth Center
07:46AM 35.4561 -97.5792 24° Northeast 241 277 3,900 1,860 Climbing Fort Worth Center
07:48AM 35.5197 -97.4367 61° Northeast 271 312 7,800 2,100 Climbing Kansas City Center
07:49AM 35.5600 -97.3431 62° Northeast 299 344 10,000 1,920 Climbing Kansas City Center
07:50AM 35.6036 -97.2367 63° Northeast 337 388 11,700 1,920 Climbing Kansas City Center
07:51AM 35.6528 -97.1225 62° Northeast 367 422 13,900 1,980 Climbing Kansas City Center
07:52AM 35.7008 -97.0050 63° Northeast 379 436 15,800 2,100 Climbing Kansas City Center
07:53AM 35.7619 -96.8581 63° Northeast 397 457 18,300 2,040 Climbing Kansas City Center
07:54AM 35.8117 -96.7350 63° Northeast 401 461 20,000 1,320 Climbing Kansas City Center
07:55AM 35.8647 -96.6042 63° Northeast 422 486 21,100 1,080 Climbing Kansas City Center
07:56AM 35.9222 -96.4653 63° Northeast 448 516 22,200 1,020 Climbing Kansas City Center
07:57AM 35.9933 -96.3367 56° Northeast 465 535 23,200 1,080 Climbing Kansas City Center
07:58AM 36.0903 -96.2153 45° Northeast 488 562 24,400 1,320 Climbing Kansas City Center
08:00AM 36.1847 -96.0928 46° Northeast 490 564 25,900 1,260 Climbing Kansas City Center
08:01AM 36.2783 -95.9706 46° Northeast 489 563 27,100 1,140 Climbing Kansas City Center
08:01AM 36.3725 -95.8461 47° Northeast 489 563 28,200 1,020 Climbing Kansas City Center
08:03AM 36.4681 -95.7181 47° Northeast 494 568 29,200 960 Climbing Kansas City Center
08:04AM 36.5639 -95.5892 47° Northeast 505 581 30,200 960 Climbing Kansas City Center
08:05AM 36.6656 -95.4544 47° Northeast 510 587 31,200 960 Climbing Kansas City Center
08:06AM 36.7619 -95.3228 48° Northeast 510 587 32,200 1,020 Climbing Kansas City Center
08:07AM 36.8581 -95.1928 47° Northeast 508 585 33,300 1,020 Climbing Kansas City Center
08:08AM 36.9533 -95.0633 47° Northeast 505 581 34,300 960 Climbing Kansas City Center
08:09AM 37.0483 -94.9353 47° Northeast 502 578 35,300 960 Climbing Kansas City Center
08:10AM 37.1422 -94.8053 48° Northeast 501 577 36,300 840 Climbing Kansas City Center
08:11AM 37.2350 -94.6800 47° Northeast 495 570 37,000 300 Climbing Kansas City Center
08:12AM 37.3281 -94.5514 48° Northeast 495 570 37,000 420 Level Kansas City Center
08:13AM 37.4211 -94.4186 49° Northeast 499 574 37,900 1,020 Climbing Kansas City Center
08:14AM 37.5300 -94.2650 48° Northeast 493 567 39,100 540 Climbing Kansas City Center
08:15AM 37.6264 -94.1478 44° Northeast 484 557 39,000 -60 Descending Kansas City Center
08:16AM 37.7214 -94.0269 45° Northeast 479 551 39,000  Level Kansas City Center
08:17AM 37.8139 -93.9025 47° Northeast 481 554 39,000  Level Kansas City Center
08:18AM 37.9031 -93.7714 49° Northeast 486 559 39,000  Level Kansas City Center
08:19AM 37.9878 -93.6336 52° Northeast 493 567 39,000  Level Kansas City Center
08:20AM 38.0217 -93.4681 75° East 488 562 39,000  Level Kansas City Center
08:21AM 38.0175 -93.3000 92° East 475 547 39,000  Level Kansas City Center
08:22AM 38.0175 -93.1322 90° East 475 547 39,000  Level Kansas City Center
08:23AM 38.0203 -92.9631 89° East 478 550 39,000  Level Kansas City Center
08:24AM 38.0194 -92.7939 90° East 478 550 39,000  Level Kansas City Center
08:25AM 38.0203 -92.6361 90° East 481 554 39,000  Level Kansas City Center
08:26AM 38.0192 -92.4639 90° East 486 559 39,000  Level Kansas City Center
08:27AM 38.0194 -92.2892 90° East 492 566 39,000  Level Kansas City Center
08:28AM 38.0186 -92.0817 90° East 494 568 39,000  Level Kansas City Center
08:29AM 38.0175 -91.9081 90° East 497 572 39,100  Climbing Kansas City Center
08:30AM 38.0164 -91.7350 90° East 494 568 39,000 -60 Descending Kansas City Center
08:31AM 38.0150 -91.5633 91° East 489 563 39,000  Level Kansas City Center
08:32AM 38.0139 -91.3919 90° East 487 560 39,000  Level Kansas City Center
08:33AM 38.0131 -91.2217 90° East 484 557 39,000  Level Kansas City Center
08:34AM 38.0117 -91.0569 91° East 482 555 39,000  Level Kansas City Center
08:35AM 38.0092 -90.8878 91° East 483 556 39,000  Level Kansas City Center
08:36AM 38.0053 -90.7211 92° East 478 550 39,000  Level Kansas City Center
08:37AM 38.0047 -90.5267 90° East 458 527 39,000  Level Kansas City Center
08:38AM 38.0000 -90.3636 92° East 476 548 39,000  Level Kansas City Center
08:39AM 37.9975 -90.1903 91° East 463 533 39,000  Level Kansas City Center
08:40AM 37.9958 -90.0261 91° East 466 536 39,000  Level Kansas City Center
08:41AM 37.9919 -89.8614 92° East 470 541 39,000  Level Kansas City Center
08:42AM 37.9878 -89.6853 92° East 468 539 39,000  Level Kansas City Center
08:43AM 37.9844 -89.5206 91° East 469 540 39,000  Level Kansas City Center
08:44AM 37.9797 -89.3556 92° East 470 541 39,000  Level Kansas City Center
08:45AM 37.9750 -89.1906 92° East 471 542 39,000  Level Kansas City Center
08:46AM 37.9686 -89.0183 93° East 469 540 39,000  Level Kansas City Center
08:47AM 37.9625 -88.8522 93° East 471 542 39,000  Level Kansas City Center
08:48AM 37.9586 -88.6900 92° East 474 545 39,000  Level Kansas City Center
08:49AM 37.9572 -88.5264 91° East 467 537 39,000  Level Kansas City Center
08:50AM 37.9511 -88.3592 93° East 471 542 39,000  Level Kansas City Center
08:51AM 37.9444 -88.1931 93° East 473 544 39,000  Level Kansas City Center
08:52AM 37.9392 -88.0267 92° East 472 543 39,000  Level Kansas City Center
08:53AM 37.9325 -87.8592 93° East 475 547 39,000  Level Kansas City Center
08:54AM 37.9492 -87.7617 78° East 478 550 39,000  Level Indianapolis Center
08:55AM 38.0108 -87.6169 62° Northeast 470 541 39,000  Level Indianapolis Center
08:56AM 38.0878 -87.4806 54° Northeast 473 544 39,000  Level Indianapolis Center
08:57AM 38.1633 -87.3444 55° Northeast 470 541 39,000  Level Indianapolis Center
08:58AM 38.2383 -87.2075 55° Northeast 472 543 39,000  Level Indianapolis Center
08:59AM 38.3161 -87.0669 55° Northeast 476 548 39,000  Level Indianapolis Center
09:00AM 38.3919 -86.9303 55° Northeast 473 544 39,000  Level Indianapolis Center
09:01AM 38.4750 -86.7775 55° Northeast 477 549 39,000  Level Indianapolis Center
09:02AM 38.5511 -86.6389 55° Northeast 476 548 39,000  Level Indianapolis Center
09:03AM 38.6267 -86.5006 55° Northeast 474 545 39,000  Level Indianapolis Center
09:04AM 38.7008 -86.3600 56° Northeast 474 545 39,000  Level Indianapolis Center
09:05AM 38.7758 -86.2228 55° Northeast 470 541 39,000 -300 Level Indianapolis Center
09:06AM 38.8486 -86.0861 56° Northeast 464 534 38,500 -540 Descending Indianapolis Center
09:07AM 38.9211 -85.9506 55° Northeast 460 529 38,000 -540 Descending Indianapolis Center
09:08AM 39.0058 -85.7914 56° Northeast 449 517 37,400 -660 Descending Indianapolis Center
09:09AM 39.0731 -85.6633 56° Northeast 432 497 36,700 -1,560 Descending Indianapolis Center
09:10AM 39.1392 -85.5389 56° Northeast 420 483 34,200 -2,520 Descending Indianapolis Center
09:11AM 39.2044 -85.4117 56° Northeast 420 483 31,600 -1,620 Descending Indianapolis Center
09:12AM 39.2686 -85.2919 55° Northeast 405 466 31,000 -300 Descending Indianapolis Center
09:13AM 39.3281 -85.1781 56° Northeast 383 441 31,000  Level Indianapolis Center
09:14AM 39.3761 -85.0553 63° Northeast 389 448 31,000  Level Indianapolis Center
09:15AM 39.3136 -84.9556 129° Southeast 368 423 31,000  Level Indianapolis Center
09:16AM 39.2472 -85.0319 222° Southwest 312 359 31,000 -240 Level Indianapolis Center
09:17AM 39.2953 -85.1264 303° West 323 372 30,600 -540 Descending Indianapolis Center
09:18AM 39.2867 -85.2378 264° West 308 354 30,000 -300 Descending Indianapolis Center
09:20AM 39.2781 -85.3531 265° West 317 365 30,000  Level Indianapolis Center
09:21AM 39.1981 -85.3794 194° South 339 390 30,000  Level Indianapolis Center
09:22AM 39.1333 -85.2814 130° Southeast 367 422 30,000  Level Indianapolis Center
09:23AM 39.0731 -85.1739 126° Southeast 368 423 30,000  Level Indianapolis Center
09:24AM 39.0106 -85.0689 127° Southeast 368 423 30,000  Level Indianapolis Center
09:25AM 38.9442 -84.9347 122° Southeast 380 437 30,000  Level Indianapolis Center
09:26AM 38.9906 -84.8342 59° Northeast 357 411 30,000  Level Indianapolis Center
09:27AM 39.0778 -84.7697 30° Northeast 355 409 30,000  Level Indianapolis Center
09:28AM 39.1664 -84.7083 28° Northeast 357 411 30,000  Level Indianapolis Center
09:29AM 39.2486 -84.7394 344° North 337 388 30,000  Level Indianapolis Center
09:30AM 39.2806 -84.8419 292° West 308 354 30,000  Level Indianapolis Center
09:31AM 39.3061 -84.9461 288° West 303 349 30,000  Level Indianapolis Center
09:32AM 39.3375 -85.0708 288° West 309 356 30,000  Level Indianapolis Center
09:33AM 39.3711 -85.1747 293° West 314 361 30,000  Level Indianapolis Center
09:34AM 39.4636 -85.1667 North 366 421 30,000  Level Indianapolis Center
09:35AM 39.4878 -85.0353 77° East 376 433 30,000  Level Indianapolis Center
09:36AM 39.4658 -84.9069 102° East 381 438 30,000 -60 Level Indianapolis Center
09:37AM 39.3800 -84.9100 182° South 333 383 29,900  Descending Indianapolis Center
09:38AM 39.3619 -85.0161 258° West 304 350 30,000  Climbing Indianapolis Center
09:39AM 39.3531 -85.1275 264° West 309 356 30,000  Level Indianapolis Center
09:40AM 39.4100 -85.2161 310° West 325 374 30,000  Level Indianapolis Center
09:41AM 39.4806 -85.1314 43° Northeast 372 428 30,000  Level Indianapolis Center
09:42AM 39.4886 -84.9919 86° East 384 442 30,000 -60 Level Indianapolis Center
09:43AM 39.4353 -84.8919 125° Southeast 365 420 29,900  Descending Indianapolis Center
09:44AM 39.3658 -84.9489 212° Southwest 322 371 30,000  Climbing Indianapolis Center
09:45AM 39.3578 -85.0594 265° West 307 353 30,000 -180 Level Indianapolis Center
09:46AM 39.3506 -85.1711 265° West 309 356 29,700 -1,080 Descending Indianapolis Center
09:47AM 39.3817 -85.2989 288° West 314 361 27,800 -2,520 Descending Indianapolis Center
09:48AM 39.4083 -85.4156 287° West 331 381 24,600 -3,480 Descending Indianapolis Center
09:49AM 39.4256 -85.5386 280° West 344 396 20,600 -3,780 Descending Indianapolis Center
09:51AM 39.4281 -85.6514 272° West 333 383 16,800 -2,880 Descending Indianapolis Center
09:52AM 39.4411 -85.7633 279° West 318 366 14,700 -2,040 Descending Indianapolis Center
09:53AM 39.4478 -85.8506 276° West 261 300 12,600 -1,800 Descending Indianapolis Center
09:54AM 39.4736 -85.9367 291° West 225 259 11,000 -1,260 Descending Indianapolis Center
09:55AM 39.5247 -86.0033 315° West 252 290 10,000 -1,020 Descending Indianapolis Center
09:56AM 39.5711 -86.0633 315° West 245 282 9,000 -1,020 Descending Indianapolis Center
09:57AM 39.6136 -86.1225 313° West 237 273 8,000 -900 Descending Indianapolis Center
09:58AM 39.6500 -86.1667 317° Northwest 220 253 7,400 -480 Descending Indianapolis TRACON
09:58AM 39.7000 -86.1500 14° North 260 299 7,200 -480 Descending Indianapolis TRACON
09:59AM 39.7500 -86.0833 46° Northeast 249 287 6,600 -600 Descending Indianapolis TRACON
10:00AM 39.7633 -86.0714 35° Northeast 254 292 6,400 -900 Descending Indianapolis Center
10:01AM 39.8500 -85.9667 43° Northeast 246 283 5,000 -540 Descending Indianapolis TRACON
10:02AM 39.9000 -85.9000 46° Northeast 245 282 5,100  Climbing Indianapolis TRACON
10:03AM 39.9500 -85.8833 14° North 212 244 5,000  Descending Indianapolis TRACON
10:04AM 39.9833 -85.9167 323° Northwest 162 186 5,100  Climbing Indianapolis TRACON
10:05AM 39.9667 -85.9667 247° West 125 144 5,100  Level Indianapolis TRACON
10:06AM 39.9333 -86.0000 217° Southwest 139 160 5,100  Level Indianapolis TRACON
10:07AM 39.9000 -86.0333 217° Southwest 146 168 5,100  Level Indianapolis TRACON
10:08AM 39.8833 -86.0667 237° Southwest 143 165 5,100  Level Indianapolis TRACON